Главная страница
METAR-TAF:

METAR-TAF

Аэропорты :

Tuktoyaktuk, Северо-Западные Территории, Канада

широта: 69-27N, долгота: 133-01W, высота над уровнем моря: 5 м

Текущие метеонаблюдения

Эта сводка был подготовлена 25 минут назад, в 04:00 UTC
Ветер 7 Узел от западный-юго-западный
Температура -15°C
Влажность 92%
Давление 1001 hPa
Видимость: 16.1 км
Отдельные облака на высоте 4500 фута
Рассеянная облачность на высоте 16000 фута
небольшой снег

METAR: CYUB 230400Z 25007KT 10SM -SN SCT045 BKN160 M15/M16 A2957 RMK SC4AS3 SLP017

Время: 21:25 (04:25 UTC)

Прогноз

Эта сводка был подготовлена 3 часа и 47 минут назад, в 00:38 UTC
Прогноз действительный с 23-го 01 UTC до 23-го 06 UTC
Ветер 8 Узел от западный
Видимость: 10 км
Рассеянная облачность на высоте 4000 фута
временами
С 23-го 01 UTC до 23-го 06 UTC
Видимость: 6.4 км
Рассеянная облачность на высоте 2000 фута
небольшой снег

TAF: CYUB 230038Z 2301/2306 27008KT P6SM BKN040 TEMPO 2301/2306 4SM -SN BKN020 RMK NXT FCST WILL BE ISSUED AT 231545Z

Метеонаблюдения и прогнозы для более 4000 аэропортов (сводки METAR и TAF).

Имеющиеся станции представлены на карте желтыми и красными точками.

Чтобы увидеть название станции, наведите на нее мышь.

Затем щелкните, чтобы увидеть метеонаблюдения и метеопрогнозы.

Управление картой: чтобы увеличить масштаб, щелкните зеленые кнопки с черным крестиком; чтобы уменьшить масштаб, щелкните зеленую кнопку с тире; для просмотра соседних карт щелкайте зеленые стрелки.


METAR-TAF: